Cranbury, New Jersey
Current Conditions -  °F | °C
As of 7:53 AM on Sunday 21 Dec 2014 (Local Time) from KTTN Reporting Station
Overcast Overcast  
Wind Chill: 30°   Ceiling: 11000
Heat Index: 30°   Visibility: 9mi
Dew Point: 21°   Wind: 3mph
Humidity: 69%   Direction: 290°WNW
Pressure: 30.3"   Gusts: NA
Location:  40.32°N, 74.51°W
Report Text: KTTN 211253Z 29003KT 9SM OVC110 M01/M06 A3030 RMK AO2 SLP257 T10111061
Loading
Personal Weather Stations






























Interactive Weather Map New forecast layout! Learn more

10-Day Weather Forecast

Advertisements
Track Severe Weather on mobile